Time;durP1;ratioP1;P1;durP2;ratioP2;P2;SDS_P1;SDS_P2;PMS_P1;PMS_P2;Temp;Humidity;BMP_temperature;BMP_pressure;BME280_temperature;BME280_humidity;BME280_pressure;Samples;Min_cycle;Max_cycle;Signal;HPM_P1;HPM_P2
2022/07/24 00:01:41;;;;;;;11.23;8.35;;;;;;;21.34;52.48;101836.78;4989724;28;119224;-78
2022/07/24 00:04:08;;;;;;;10.65;8.50;;;;;;;21.33;52.25;101835.09;4969775;28;119202;-78
2022/07/24 00:06:36;;;;;;;10.45;7.55;;;;;;;21.32;52.62;101838.75;4970321;28;123967;-78
2022/07/24 00:09:04;;;;;;;10.77;8.40;;;;;;;21.31;52.72;101826.25;4989712;28;124425;-80
2022/07/24 00:11:33;;;;;;;12.27;8.30;;;;;;;21.32;52.65;101827.97;4953084;28;118898;-80
2022/07/24 00:14:00;;;;;;;13.20;8.02;;;;;;;21.33;52.67;101829.69;4968864;28;118875;-80
2022/07/24 00:16:27;;;;;;;11.32;7.90;;;;;;;21.34;52.81;101828.69;4968307;28;123543;-80
2022/07/24 00:18:55;;;;;;;12.45;8.75;;;;;;;21.36;52.79;101829.44;4955117;28;124072;-80
2022/07/24 00:21:24;;;;;;;13.50;7.97;;;;;;;21.36;52.63;101829.44;4990330;28;96870;-80
2022/07/24 00:23:51;;;;;;;11.45;8.00;;;;;;;21.36;52.49;101829.44;4972408;28;117993;-80
2022/07/24 00:26:18;;;;;;;9.93;7.50;;;;;;;21.36;52.47;101829.44;4971152;28;122230;-80
2022/07/24 00:28:45;;;;;;;9.70;6.75;;;;;;;21.36;52.42;101833.03;4955382;28;123027;-80
2022/07/24 00:31:12;;;;;;;9.80;7.15;;;;;;;21.34;52.37;101836.78;4971931;28;120771;-80
2022/07/24 00:33:40;;;;;;;9.30;6.90;;;;;;;21.32;52.32;101827.97;4978097;28;118675;-80
2022/07/24 00:36:07;;;;;;;9.73;7.82;;;;;;;21.28;52.41;101829.16;4987729;28;123578;-79
2022/07/24 00:38:34;;;;;;;9.15;7.13;;;;;;;21.27;52.38;101830.16;4988272;28;123298;-80
2022/07/24 00:41:01;;;;;;;9.65;7.30;;;;;;;21.23;52.45;101828.66;4987866;28;120257;-80
2022/07/24 00:43:29;;;;;;;10.30;7.60;;;;;;;21.20;52.47;101825.22;4980571;28;120095;-79
2022/07/24 00:45:56;;;;;;;10.80;7.72;;;;;;;21.18;52.48;101824.47;4981779;28;123379;-80
2022/07/24 00:48:23;;;;;;;10.52;8.40;;;;;;;21.18;52.68;101832.53;4979821;28;123259;-80
2022/07/24 00:50:51;;;;;;;12.07;8.30;;;;;;;21.17;52.86;101825.47;4979539;28;118359;-80
2022/07/24 00:53:18;;;;;;;10.30;8.40;;;;;;;21.17;52.83;101825.47;4978494;28;119558;-80
2022/07/24 00:55:45;;;;;;;12.15;9.30;;;;;;;21.17;52.78;101828.16;4961455;28;122962;-80
2022/07/24 00:58:12;;;;;;;11.18;8.32;;;;;;;21.17;52.93;101825.47;4973783;28;123205;-80
2022/07/24 01:00:40;;;;;;;10.52;8.50;;;;;;;21.18;52.92;101827.16;4975844;28;118920;-80
2022/07/24 01:03:07;;;;;;;13.75;8.13;;;;;;;21.17;52.64;101828.16;4995910;28;118906;-80
2022/07/24 01:05:34;;;;;;;11.80;8.23;;;;;;;21.16;52.79;101823.72;4989915;28;122545;-80
2022/07/24 01:08:01;;;;;;;11.18;8.60;;;;;;;21.15;52.88;101824.72;4975822;28;123008;-80
2022/07/24 01:10:29;;;;;;;10.25;7.82;;;;;;;21.14;52.74;101824.81;4994054;28;119021;-79
2022/07/24 01:12:57;;;;;;;11.90;8.35;;;;;;;21.10;52.90;101818.78;4975220;28;118374;-80
2022/07/24 01:15:24;;;;;;;10.25;8.18;;;;;;;21.10;52.97;101824.19;4959011;28;123410;-80
2022/07/24 01:17:51;;;;;;;14.93;8.65;;;;;;;21.08;53.06;101820.75;4973930;28;123353;-80
2022/07/24 01:20:18;;;;;;;12.48;8.57;;;;;;;21.07;53.09;101824.41;4991122;28;118947;-80
2022/07/24 01:22:45;;;;;;;12.48;8.73;;;;;;;21.08;52.92;101820.75;4990595;28;118899;-80
2022/07/24 01:25:13;;;;;;;14.27;8.98;;;;;;;21.07;52.98;101820.84;4990508;28;123831;-81
2022/07/24 01:27:40;;;;;;;10.60;8.38;;;;;;;21.03;52.81;101822.91;4969412;28;123340;-80
2022/07/24 01:30:08;;;;;;;11.23;8.35;;;;;;;21.00;52.60;101817.75;4984230;28;120073;-80
2022/07/24 01:32:35;;;;;;;12.23;9.35;;;;;;;20.97;52.92;101812.59;4966954;28;118888;-80
2022/07/24 01:35:03;;;;;;;13.73;9.60;;;;;;;20.96;52.97;101808.16;4970462;28;123490;-80
2022/07/24 01:37:30;;;;;;;13.18;9.88;;;;;;;20.95;53.08;101809.16;4952486;28;123515;-80
2022/07/24 01:39:57;;;;;;;14.45;9.65;;;;;;;20.95;52.88;101806.47;4987314;28;118715;-80
2022/07/24 01:42:25;;;;;;;11.82;9.48;;;;;;;20.92;52.94;101798.59;4986431;28;117903;-80
2022/07/24 01:44:52;;;;;;;11.70;9.05;;;;;;;20.89;52.88;101799.69;4953730;28;124321;-80
2022/07/24 01:47:19;;;;;;;12.80;9.43;;;;;;;20.87;53.08;101795.38;4971461;28;124833;-80
2022/07/24 01:49:46;;;;;;;13.55;9.70;;;;;;;20.87;53.12;101795.38;4954611;28;118204;-80
2022/07/24 01:52:14;;;;;;;11.52;9.10;;;;;;;20.87;53.12;101790.00;4965348;28;119699;-80
2022/07/24 01:54:41;;;;;;;12.52;9.40;;;;;;;20.86;53.00;101788.28;4969951;28;123576;-80
2022/07/24 01:57:08;;;;;;;13.95;10.32;;;;;;;20.86;53.13;101789.16;4953735;28;122730;-80
2022/07/24 01:59:35;;;;;;;13.57;10.00;;;;;;;20.86;53.06;101782.91;4985745;28;118519;-80
2022/07/24 02:02:02;;;;;;;14.05;10.10;;;;;;;20.86;53.11;101782.91;4953358;28;117956;-80
2022/07/24 02:04:30;;;;;;;13.07;9.32;;;;;;;20.85;53.11;101781.16;4970779;28;123649;-80
2022/07/24 02:06:57;;;;;;;14.57;9.38;;;;;;;20.85;53.19;101781.16;4969954;28;121921;-80
2022/07/24 02:09:24;;;;;;;13.10;9.52;;;;;;;20.86;53.08;101777.53;4987332;28;119531;-79
2022/07/24 02:11:51;;;;;;;12.30;9.43;;;;;;;20.85;53.04;101786.56;4970031;28;117439;-80
2022/07/24 02:14:19;;;;;;;14.65;9.52;;;;;;;20.85;53.00;101783.88;4969561;28;124018;-80
2022/07/24 02:16:46;;;;;;;12.40;9.15;;;;;;;20.85;52.95;101786.56;4986465;28;124026;-80
2022/07/24 02:19:14;;;;;;;12.65;9.15;;;;;;;20.83;53.20;101773.19;4969078;28;119317;-80
2022/07/24 02:21:41;;;;;;;12.93;9.65;;;;;;;20.83;52.86;101783.13;4970054;28;120634;-80
2022/07/24 02:24:08;;;;;;;13.95;9.40;;;;;;;20.80;52.98;101774.28;4969493;28;123728;-80
2022/07/24 02:26:35;;;;;;;11.32;8.88;;;;;;;20.80;53.03;101774.28;4986756;28;124327;-80
2022/07/24 02:29:02;;;;;;;13.07;9.50;;;;;;;20.80;53.10;101774.28;4969630;28;119585;-80
2022/07/24 02:31:30;;;;;;;12.40;9.23;;;;;;;20.79;53.06;101771.72;4970399;28;118735;-80
2022/07/24 02:33:57;;;;;;;13.75;9.75;;;;;;;20.79;53.05;101771.72;4987747;28;123186;-80
2022/07/24 02:36:24;;;;;;;12.73;9.13;;;;;;;20.78;52.97;101776.25;4953524;28;122919;-80
2022/07/24 02:38:51;;;;;;;15.57;9.57;;;;;;;20.78;53.16;101773.56;4986912;28;119962;-80
2022/07/24 02:41:18;;;;;;;14.52;9.93;;;;;;;20.78;53.24;101760.09;4987686;28;119146;-80
2022/07/24 02:43:46;;;;;;;11.50;9.32;;;;;;;20.79;52.96;101777.09;4985795;28;122983;-81
2022/07/24 02:46:13;;;;;;;12.88;9.07;;;;;;;20.78;52.85;101770.88;4951184;28;122627;-80
2022/07/24 02:48:40;;;;;;;13.43;9.77;;;;;;;20.77;53.05;101774.50;4964966;28;118431;-80
2022/07/24 02:51:07;;;;;;;14.25;9.70;;;;;;;20.77;53.04;101774.50;4984009;28;120409;-81
2022/07/24 02:53:35;;;;;;;14.00;10.18;;;;;;;20.78;53.06;101778.94;4966008;28;123449;-80
2022/07/24 02:56:02;;;;;;;13.38;9.88;;;;;;;20.77;53.03;101774.50;4984736;28;122869;-80
2022/07/24 02:58:29;;;;;;;12.88;9.43;;;;;;;20.76;53.14;101772.81;4985175;28;118811;-80
2022/07/24 03:00:56;;;;;;;13.43;9.98;;;;;;;20.77;53.19;101773.66;4981846;28;117400;-80
2022/07/24 03:03:23;;;;;;;15.13;10.23;;;;;;;20.75;53.09;101765.69;4960845;28;122199;-80
2022/07/24 03:05:51;;;;;;;12.02;9.35;;;;;;;20.73;53.15;101767.63;4993919;28;123552;-80
2022/07/24 03:08:18;;;;;;;13.30;9.70;;;;;;;20.74;53.18;101769.38;4972587;28;119569;-80
2022/07/24 03:10:45;;;;;;;13.65;10.07;;;;;;;20.73;52.90;101772.16;4974468;28;119309;-80
2022/07/24 03:13:12;;;;;;;12.60;9.38;;;;;;;20.72;53.17;101768.63;4969873;28;123279;-80
2022/07/24 03:15:39;;;;;;;13.35;9.65;;;;;;;20.70;52.96;101767.88;4985857;28;123320;-80
2022/07/24 03:18:06;;;;;;;14.10;10.05;;;;;;;20.70;53.17;101767.88;4986458;28;118996;-80
2022/07/24 03:20:47;;;;;;;14.70;9.52;;;;;;;20.70;53.15;101770.56;4984713;28;118848;-80
2022/07/24 03:23:14;;;;;;;11.75;8.98;;;;;;;20.69;53.13;101763.47;4970719;28;123572;-80
2022/07/24 03:25:42;;;;;;;13.35;9.40;;;;;;;20.69;53.21;101766.16;4973173;28;121941;-80
2022/07/24 03:28:09;;;;;;;11.75;8.95;;;;;;;20.71;53.41;101758.81;4971727;28;118375;-80
2022/07/24 03:30:36;;;;;;;13.02;10.02;;;;;;;20.70;53.28;101762.50;4967255;28;118125;-80
2022/07/24 03:33:03;;;;;;;13.45;9.70;;;;;;;20.68;53.25;101759.06;4970905;28;123212;-80
2022/07/24 03:35:30;;;;;;;12.27;9.02;;;;;;;20.69;53.22;101766.16;4965606;28;123914;-80
2022/07/24 03:37:57;;;;;;;13.02;9.45;;;;;;;20.66;53.01;101771.75;4985134;28;119743;-80
2022/07/24 03:40:24;;;;;;;13.20;8.55;;;;;;;20.64;53.08;101780.91;4953899;28;118360;-80
2022/07/24 03:42:52;;;;;;;12.43;9.27;;;;;;;20.59;53.16;101770.47;4986505;28;123966;-80
2022/07/24 03:45:19;;;;;;;12.20;9.57;;;;;;;20.56;53.27;101776.06;4969410;28;123526;-81
2022/07/24 03:47:46;;;;;;;14.27;9.77;;;;;;;20.53;53.48;101776.28;4971904;28;118418;-80
2022/07/24 03:50:13;;;;;;;13.48;8.90;;;;;;;20.53;53.38;101770.88;4966507;28;119396;-80
2022/07/24 03:52:49;;;;;;;12.10;8.82;;;;;;;20.52;53.43;101774.56;4971364;28;123510;-80
2022/07/24 03:55:16;;;;;;;12.80;9.43;;;;;;;20.53;53.67;101765.50;4971874;28;123391;-80
2022/07/24 03:57:44;;;;;;;13.52;9.82;;;;;;;20.52;53.53;101769.19;4971519;28;118822;-80
2022/07/24 04:00:12;;;;;;;11.98;9.02;;;;;;;20.52;53.59;101774.56;4972229;28;119734;-80
2022/07/24 04:02:40;;;;;;;12.57;9.52;;;;;;;20.51;53.67;101772.84;4968963;28;123247;-80
2022/07/24 04:05:08;;;;;;;14.82;9.60;;;;;;;20.50;53.74;101776.50;4955791;28;123325;-80
2022/07/24 04:07:36;;;;;;;12.77;9.63;;;;;;;20.49;53.88;101774.78;4972149;28;117931;-80
2022/07/24 04:10:06;;;;;;;13.00;9.50;;;;;;;20.49;54.04;101769.41;4969734;28;118865;-80
2022/07/24 04:12:33;;;;;;;12.93;10.13;;;;;;;20.50;54.00;101771.13;4988333;28;123805;-80
2022/07/24 04:15:00;;;;;;;14.38;10.75;;;;;;;20.52;54.15;101771.88;4972017;28;124088;-80
2022/07/24 04:17:27;;;;;;;14.02;10.05;;;;;;;20.54;54.34;101772.63;4971648;28;120199;-80
2022/07/24 04:19:54;;;;;;;14.82;9.93;;;;;;;20.55;54.39;101774.31;4955139;28;118708;-81
2022/07/24 04:22:21;;;;;;;13.98;9.95;;;;;;;20.60;54.25;101767.66;4989306;28;125010;-81
2022/07/24 04:24:48;;;;;;;12.65;10.38;;;;;;;20.62;54.25;101770.25;4970981;28;123276;-80
2022/07/24 04:27:15;;;;;;;15.43;10.95;;;;;;;20.65;54.50;101764.66;4988230;28;118896;-80
2022/07/24 04:29:43;;;;;;;14.95;11.05;;;;;;;20.68;54.63;101769.84;4970803;28;118240;-80
2022/07/24 04:32:10;;;;;;;16.73;11.25;;;;;;;20.71;54.63;101769.59;4989802;28;125396;-80
2022/07/24 04:34:37;;;;;;;14.60;10.40;;;;;;;20.74;54.59;101772.06;4971096;28;123587;-80
2022/07/24 04:37:04;;;;;;;19.50;11.30;;;;;;;20.78;54.67;101770.88;4951098;28;118269;-80
2022/07/24 04:39:31;;;;;;;17.10;11.10;;;;;;;20.82;54.63;101770.66;4989442;28;119158;-78
2022/07/24 04:41:58;;;;;;;17.52;11.73;;;;;;;20.85;54.61;101775.78;4987451;28;122250;-78
2022/07/24 04:44:25;;;;;;;14.63;10.77;;;;;;;20.86;54.71;101777.53;4987824;28;123782;-79
2022/07/24 04:46:52;;;;;;;14.82;11.07;;;;;;;20.91;54.63;101791.50;4970891;28;119729;-78
2022/07/24 04:49:19;;;;;;;17.58;11.20;;;;;;;20.91;54.52;101786.13;4954361;28;118745;-78
2022/07/24 04:51:47;;;;;;;15.95;11.13;;;;;;;20.94;54.59;101788.56;4955028;28;123564;-80
2022/07/24 04:54:14;;;;;;;17.10;11.52;;;;;;;20.98;54.58;101793.63;4970691;28;121165;-81
2022/07/24 04:56:41;;;;;;;15.38;11.98;;;;;;;21.03;54.84;101800.50;4968584;28;118367;-78
2022/07/24 04:59:08;;;;;;;17.17;12.52;;;;;;;21.08;54.87;101793.81;4968588;28;118887;-81
2022/07/24 05:01:35;;;;;;;16.00;11.32;;;;;;;21.13;54.91;101791.59;4986170;28;122153;-81
2022/07/24 05:04:02;;;;;;;16.95;11.57;;;;;;;21.17;54.67;101798.50;4986386;28;123252;-81
2022/07/24 05:06:29;;;;;;;17.65;12.30;;;;;;;21.22;54.78;101794.59;4970827;28;118197;-81
2022/07/24 05:08:57;;;;;;;16.75;12.52;;;;;;;21.27;54.62;101793.28;4953321;28;119449;-82
2022/07/24 05:11:24;;;;;;;18.92;13.52;;;;;;;21.30;54.53;101786.78;4988489;28;123379;-81
2022/07/24 05:13:51;;;;;;;17.45;12.43;;;;;;;21.32;54.71;101791.13;4971267;28;122025;-82
2022/07/24 05:16:18;;;;;;;19.42;13.18;;;;;;;21.36;54.49;101794.41;4971918;28;118491;-81
2022/07/24 05:18:45;;;;;;;19.63;13.32;;;;;;;21.37;54.65;101793.44;5002586;28;118481;-81
2022/07/24 05:21:14;;;;;;;18.98;13.10;;;;;;;21.40;54.65;101787.84;4997131;28;123322;-81
2022/07/24 05:23:42;;;;;;;20.73;12.98;;;;;;;21.44;54.57;101789.34;4992027;28;123444;-78
2022/07/24 05:26:10;;;;;;;18.83;13.63;;;;;;;21.47;54.64;101794.50;4978759;28;117699;-81
2022/07/24 05:28:37;;;;;;;22.00;13.85;;;;;;;21.50;54.85;101788.88;4985141;28;117085;-81
2022/07/24 05:31:04;;;;;;;22.30;14.68;;;;;;;21.54;54.88;101792.19;4979543;28;123139;-81
2022/07/24 05:33:31;;;;;;;20.35;14.15;;;;;;;21.58;54.72;101786.44;4975656;28;123493;-78
2022/07/24 05:35:58;;;;;;;21.08;13.90;;;;;;;21.62;54.99;101787.06;4988237;28;121383;-78
2022/07/24 05:38:26;;;;;;;21.38;14.02;;;;;;;21.66;54.85;101782.31;4989571;28;120610;-79
2022/07/24 05:40:53;;;;;;;20.95;13.05;;;;;;;21.70;54.72;101783.78;4974669;28;122996;-81
2022/07/24 05:43:20;;;;;;;19.90;13.80;;;;;;;21.74;54.86;101790.69;4973320;28;123460;-81
2022/07/24 05:45:47;;;;;;;19.20;13.65;;;;;;;21.77;54.91;101785.03;4973887;28;119610;-81
2022/07/24 05:48:14;;;;;;;22.52;14.13;;;;;;;21.80;54.96;101790.19;4972896;28;119445;-80
2022/07/24 05:50:41;;;;;;;18.67;13.88;;;;;;;21.83;54.88;101784.56;4989624;28;123842;-81
2022/07/24 05:53:08;;;;;;;21.77;14.02;;;;;;;21.86;54.86;101781.63;4990438;28;124600;-79
2022/07/24 05:55:36;;;;;;;24.05;15.13;;;;;;;21.90;54.85;101785.78;4989679;28;118593;-79
2022/07/24 05:58:03;;;;;;;23.85;14.75;;;;;;;21.95;55.05;101783.59;4974872;28;119018;-79
2022/07/24 06:00:31;;;;;;;22.95;15.18;;;;;;;21.99;55.04;101789.63;4958285;28;122589;-80
2022/07/24 06:02:58;;;;;;;22.35;14.43;;;;;;;22.05;55.05;101782.88;4995209;28;124714;-80
2022/07/24 06:05:25;;;;;;;21.50;14.70;;;;;;;22.09;55.01;101784.34;4996224;28;118486;-79
2022/07/24 06:07:52;;;;;;;24.15;16.50;;;;;;;22.15;55.24;101797.34;4988222;28;119335;-78
2022/07/24 06:10:19;;;;;;;26.88;15.90;;;;;;;22.23;55.15;101808.41;4990311;28;123290;-79
2022/07/24 06:12:52;;;;;;;24.33;16.20;;;;;;;22.30;55.25;101811.50;4992602;28;124118;-79
2022/07/24 06:15:19;;;;;;;24.05;16.15;;;;;;;22.35;55.23;101807.44;4970094;28;119112;-79
2022/07/24 06:17:47;;;;;;;28.95;17.85;;;;;;;22.42;54.96;101812.38;4985588;28;119471;-79
2022/07/24 06:20:16;;;;;;;23.77;17.20;;;;;;;22.45;55.13;101812.13;4985288;28;124400;-80
2022/07/24 06:22:44;;;;;;;25.50;17.17;;;;;;;22.49;55.14;101813.59;4969030;28;124041;-81
2022/07/24 06:25:16;;;;;;;24.10;16.98;;;;;;;22.53;55.24;101815.09;4975651;28;121647;-81
2022/07/24 06:27:45;;;;;;;25.30;17.77;;;;;;;22.61;55.15;101823.41;4986602;28;120263;-81
2022/07/24 06:30:21;;;;;;;25.55;17.00;;;;;;;22.67;55.35;101822.06;4959856;28;124623;-80
2022/07/24 06:32:49;;;;;;;25.92;17.33;;;;;;;22.74;55.24;101824.13;4976879;28;122769;-81
2022/07/24 06:35:16;;;;;;;27.08;17.88;;;;;;;22.83;55.34;101822.53;4981949;28;119634;-81
2022/07/24 06:37:44;;;;;;;24.90;17.08;;;;;;;22.92;55.01;101823.59;4986584;28;117544;-81
2022/07/24 06:40:15;;;;;;;23.88;16.50;;;;;;;23.00;55.12;101823.84;4962555;28;124395;-81
2022/07/24 06:42:43;;;;;;;23.83;17.10;;;;;;;23.11;54.85;101815.75;4970802;28;122978;-79
2022/07/24 06:45:11;;;;;;;25.92;17.17;;;;;;;23.23;55.00;101813.00;4965509;28;119212;-81
2022/07/24 06:47:39;;;;;;;24.05;16.92;;;;;;;23.37;54.88;101809.16;4988130;28;118929;-79
2022/07/24 06:50:07;;;;;;;23.77;16.80;;;;;;;23.51;54.95;101807.00;4952329;28;124573;-80
2022/07/24 06:52:34;;;;;;;26.15;16.60;;;;;;;23.67;54.73;101811.09;4970050;28;122849;-80
2022/07/24 06:55:01;;;;;;;24.80;16.25;;;;;;;23.82;54.79;101809.81;4986828;28;119637;-80
2022/07/24 06:57:28;;;;;;;23.90;16.15;;;;;;;23.99;54.08;101810.19;4970820;28;118498;-80
2022/07/24 06:59:55;;;;;;;22.65;15.80;;;;;;;24.13;54.25;101807.16;4990683;28;123958;-80
2022/07/24 07:02:23;;;;;;;24.88;16.08;;;;;;;24.31;54.09;101815.50;4991022;28;123982;-80
2022/07/24 07:04:50;;;;;;;21.00;15.90;;;;;;;24.49;53.59;101807.59;4966968;28;119366;-81
2022/07/24 07:07:17;;;;;;;19.25;15.00;;;;;;;24.66;53.37;101809.69;4973526;28;118741;-80
2022/07/24 07:09:45;;;;;;;18.58;13.88;;;;;;;24.83;53.29;101810.03;4990592;28;124400;-80
2022/07/24 07:12:12;;;;;;;19.40;12.60;;;;;;;25.02;52.29;101807.34;4991842;28;123696;-80
2022/07/24 07:14:39;;;;;;;15.77;11.98;;;;;;;25.17;51.65;101807.81;4972378;28;119439;-80
2022/07/24 07:17:06;;;;;;;17.45;12.10;;;;;;;25.31;51.30;101811.97;4990548;28;120020;-80
2022/07/24 07:19:33;;;;;;;15.48;12.00;;;;;;;25.42;50.34;101800.97;4955422;28;122894;-80
2022/07/24 07:22:00;;;;;;;15.18;11.13;;;;;;;25.54;50.51;101798.13;4971791;28;122928;-79
2022/07/24 07:24:27;;;;;;;14.27;10.60;;;;;;;25.68;50.31;101799.56;4961186;28;118161;-79
2022/07/24 07:26:54;;;;;;;15.25;11.32;;;;;;;25.82;50.14;101791.81;4955450;28;118434;-79
2022/07/24 07:29:22;;;;;;;15.85;11.05;;;;;;;25.97;49.67;101800.38;4973486;28;122671;-80
2022/07/24 07:31:56;;;;;;;13.57;10.10;;;;;;;26.10;48.89;101800.03;4984217;28;124205;-79
2022/07/24 07:34:23;;;;;;;14.52;9.63;;;;;;;26.20;48.30;101800.88;5003793;28;118669;-79
2022/07/24 07:36:50;;;;;;;11.52;8.90;;;;;;;26.31;47.96;101812.56;5002798;28;119348;-79
2022/07/24 07:39:17;;;;;;;10.82;7.85;;;;;;;26.42;47.57;101804.22;4983492;28;122596;-79
2022/07/24 07:41:44;;;;;;;11.23;8.48;;;;;;;26.53;47.36;101793.16;4965773;28;123383;-79
2022/07/24 07:44:11;;;;;;;13.43;9.02;;;;;;;26.67;47.13;101796.41;4997485;28;118115;-79
2022/07/24 07:46:38;;;;;;;13.18;8.32;;;;;;;26.80;46.96;101797.78;4981534;28;119699;-79
2022/07/24 07:49:07;;;;;;;12.18;9.20;;;;;;;26.94;46.51;101799.09;4978506;28;122983;-79
2022/07/24 07:51:35;;;;;;;12.15;8.43;;;;;;;27.05;46.10;101805.31;4979461;28;122624;-79
2022/07/24 07:54:06;;;;;;;10.68;6.88;;;;;;;27.12;45.87;101810.00;4979636;28;118914;-80
2022/07/24 07:56:33;;;;;;;9.05;7.18;;;;;;;27.21;45.60;101805.50;4976261;28;118543;-79
2022/07/24 07:59:00;;;;;;;11.35;7.03;;;;;;;27.28;45.05;101801.19;4992765;28;124181;-79
2022/07/24 08:01:28;;;;;;;8.90;6.63;;;;;;;27.38;45.36;101807.38;4974888;28;122951;-79
2022/07/24 08:03:55;;;;;;;9.18;6.80;;;;;;;27.52;44.85;101816.88;4956146;28;119892;-79
2022/07/24 08:06:22;;;;;;;9.70;7.75;;;;;;;27.63;44.29;101799.44;4973076;28;118707;-79
2022/07/24 08:08:50;;;;;;;9.43;6.28;;;;;;;27.71;44.46;101791.34;4989790;28;123641;-79
2022/07/24 08:11:17;;;;;;;10.35;6.15;;;;;;;27.77;44.07;101790.69;4972635;28;122033;-79
2022/07/24 08:13:44;;;;;;;7.93;6.28;;;;;;;27.87;43.37;101789.75;4972199;28;118566;-79
2022/07/24 08:16:11;;;;;;;8.55;6.65;;;;;;;27.95;43.73;101787.09;4990403;28;118316;-79
2022/07/24 08:18:39;;;;;;;7.72;5.60;;;;;;;28.05;43.50;101782.41;4990782;28;124204;-79
2022/07/24 08:21:06;;;;;;;7.05;4.95;;;;;;;28.18;42.88;101781.97;4992327;28;124577;-80
2022/07/24 08:23:33;;;;;;;6.00;5.28;;;;;;;28.29;43.12;101778.97;4989183;28;119065;-79
2022/07/24 08:26:01;;;;;;;6.90;5.72;;;;;;;28.45;43.19;101777.31;4969658;28;118196;-80
2022/07/24 08:28:28;;;;;;;7.07;4.93;;;;;;;28.60;43.07;101780.31;4985742;28;123317;-80
2022/07/24 08:30:55;;;;;;;5.68;4.45;;;;;;;28.75;42.47;101794.16;4989215;28;124677;-79
2022/07/24 08:33:22;;;;;;;4.65;3.95;;;;;;;28.85;41.77;101798.44;4973115;28;118738;-79
2022/07/24 08:35:49;;;;;;;5.00;3.70;;;;;;;28.90;40.99;101809.72;4991434;28;118134;-79
2022/07/24 08:38:17;;;;;;;4.78;3.80;;;;;;;28.96;41.02;101799.16;4973171;28;123772;-79
2022/07/24 08:40:45;;;;;;;3.88;3.35;;;;;;;28.98;40.62;101810.75;4988704;28;123833;-79
2022/07/24 08:43:12;;;;;;;5.88;3.78;;;;;;;28.99;40.21;101799.69;4955578;28;118524;-79
2022/07/24 08:45:42;;;;;;;5.22;3.42;;;;;;;29.04;39.93;101793.72;4956411;28;118434;-79
2022/07/24 08:48:10;;;;;;;3.58;2.83;;;;;;;29.09;40.16;101785.88;4955536;28;123611;-79
2022/07/24 08:50:41;;;;;;;5.55;3.30;;;;;;;29.15;40.15;101784.41;4990298;28;122813;-79
2022/07/24 08:53:09;;;;;;;4.18;3.30;;;;;;;29.24;40.15;101784.22;4982674;28;118268;-79
2022/07/24 08:55:37;;;;;;;4.05;3.20;;;;;;;29.33;39.87;101792.41;4967165;28;120650;-79
2022/07/24 08:58:04;;;;;;;3.80;2.75;;;;;;;29.40;39.46;101793.44;4970750;28;122492;-80
2022/07/24 09:00:32;;;;;;;2.95;2.65;;;;;;;29.47;39.22;101778.09;4971443;28;124213;-79
2022/07/24 09:02:59;;;;;;;5.55;2.88;;;;;;;29.54;39.10;101784.59;4968374;28;119174;-79
2022/07/24 09:05:27;;;;;;;4.18;2.60;;;;;;;29.58;38.62;101785.94;4970438;28;118869;-79
2022/07/24 09:08:12;;;;;;;4.18;2.40;;;;;;;29.59;38.65;101779.47;4989260;28;123958;-79
2022/07/24 09:10:39;;;;;;;3.55;2.42;;;;;;;29.63;38.36;101775.38;4988670;28;122125;-80
2022/07/24 09:13:14;;;;;;;2.53;1.98;;;;;;;29.68;38.10;101770.22;4973364;28;118501;-79
2022/07/24 09:15:47;;;;;;;2.33;2.03;;;;;;;29.75;38.03;101769.59;4972083;28;119476;-80
2022/07/24 09:18:34;;;;;;;2.90;1.92;;;;;;;29.86;38.39;101764.59;4971009;28;123084;-79
2022/07/24 09:21:14;;;;;;;2.40;1.90;;;;;;;29.95;37.77;101770.03;4970588;28;122716;-79
2022/07/24 09:23:41;;;;;;;2.10;1.85;;;;;;;30.01;37.41;101764.75;4970996;28;118866;-79
2022/07/24 09:26:09;;;;;;;2.50;2.00;;;;;;;30.06;37.39;101762.34;4991349;28;119210;-79
2022/07/24 09:28:51;;;;;;;2.45;1.85;;;;;;;30.14;37.14;101757.84;4991583;28;124259;-79
2022/07/24 09:31:21;;;;;;;1.77;1.60;;;;;;;30.18;36.61;101759.22;4959856;28;124213;-79
2022/07/24 09:33:48;;;;;;;2.25;1.90;;;;;;;30.21;36.54;101764.31;4954056;28;118217;-79
2022/07/24 09:36:18;;;;;;;3.78;1.92;;;;;;;30.23;36.15;101765.00;4973470;28;118860;-79
2022/07/24 09:38:51;;;;;;;2.75;1.92;;;;;;;30.24;35.97;101766.72;4955747;28;123535;-79
2022/07/24 09:41:23;;;;;;;2.38;1.63;;;;;;;30.24;36.28;101759.34;4989159;28;124177;-79
2022/07/24 09:44:02;;;;;;;1.80;1.60;;;;;;;30.28;36.06;101759.84;4985099;28;120674;-79
2022/07/24 09:46:47;;;;;;;2.08;1.80;;;;;;;30.32;35.82;101744.84;4983996;28;119955;-79
2022/07/24 09:49:20;;;;;;;2.20;1.60;;;;;;;30.33;35.70;101752.03;4972241;28;123344;-79
2022/07/24 09:52:10;;;;;;;2.08;1.70;;;;;;;30.34;35.92;101747.41;4981025;28;123826;-78
2022/07/24 09:54:40;;;;;;;2.95;1.90;;;;;;;30.36;36.38;101735.25;4984254;28;117209;-79
2022/07/24 09:57:25;;;;;;;2.20;1.90;;;;;;;30.43;36.33;101740.88;4981293;28;118177;-79
2022/07/24 09:59:57;;;;;;;;;;;;;;;30.49;37.24;101733.84;4957948;28;124315;-79
2022/07/24 10:02:31;;;;;;;2.25;1.90;;;;;;;30.57;36.52;101736.50;4959605;28;122043;-79
2022/07/24 10:05:01;;;;;;;2.00;1.73;;;;;;;30.62;36.29;101740.41;4963280;28;117247;-80
2022/07/24 10:07:29;;;;;;;2.53;1.92;;;;;;;30.67;35.85;101728.94;4961082;28;117895;-79
2022/07/24 10:09:58;;;;;;;2.38;2.00;;;;;;;30.72;36.46;101731.97;4993379;28;123569;-79
2022/07/24 10:12:29;;;;;;;1.92;1.73;;;;;;;30.81;36.20;101739.09;4960511;28;122393;-79
2022/07/24 10:14:59;;;;;;;4.38;1.90;;;;;;;30.91;36.31;101727.97;4974060;28;119319;-79
2022/07/24 10:17:57;;;;;;;2.33;1.80;;;;;;;31.01;36.03;101733.19;4992648;28;118696;-80
2022/07/24 10:20:41;;;;;;;2.38;1.88;;;;;;;31.06;36.18;101728.00;4993320;28;124369;-80
2022/07/24 10:23:25;;;;;;;2.47;2.10;;;;;;;31.15;35.62;101729.66;5005175;28;123939;-78
2022/07/24 10:26:05;;;;;;;2.60;2.20;;;;;;;31.21;35.53;101723.47;4986190;28;120561;-79
2022/07/24 10:28:43;;;;;;;2.83;2.10;;;;;;;31.28;35.23;101714.50;4990229;28;118966;-76
2022/07/24 10:31:13;;;;;;;2.15;1.95;;;;;;;31.31;35.57;101712.25;4979177;28;126498;-76
2022/07/24 10:33:45;;;;;;;3.47;2.03;;;;;;;31.36;35.41;101714.41;4976275;28;122557;-76
2022/07/24 10:36:17;;;;;;;2.20;1.95;;;;;;;31.43;35.12;101704.44;4995293;28;120130;-76
2022/07/24 10:38:55;;;;;;;2.70;1.73;;;;;;;31.52;35.58;101707.97;4994981;28;119952;-77
2022/07/24 10:41:25;;;;;;;2.15;1.80;;;;;;;31.62;35.06;101709.38;4984521;28;123987;-77
2022/07/24 10:44:19;;;;;;;2.20;1.90;;;;;;;31.66;34.95;101703.53;4983823;28;123445;-77
2022/07/24 10:47:23;;;;;;;2.25;1.70;;;;;;;31.69;34.94;101694.97;4984668;28;119525;-76
2022/07/24 10:49:50;;;;;;;2.55;1.80;;;;;;;31.72;34.74;101700.03;4964633;28;118018;-77
2022/07/24 10:52:29;;;;;;;3.10;1.60;;;;;;;31.80;34.70;101689.00;4985063;28;124414;-76
2022/07/24 10:55:33;;;;;;;2.70;1.60;;;;;;;31.85;34.30;101697.50;4982828;28;124173;-76
2022/07/24 10:58:13;;;;;;;2.28;1.80;;;;;;;31.88;34.51;101691.66;4975614;28;118992;-77
2022/07/24 11:00:45;;;;;;;2.38;2.00;;;;;;;31.94;33.99;101685.41;4985799;28;119307;-76
2022/07/24 11:03:22;;;;;;;2.50;1.70;;;;;;;31.99;34.42;101677.47;4983205;28;124766;-77
2022/07/24 11:06:10;;;;;;;2.55;2.10;;;;;;;32.10;34.79;101678.91;4982377;28;123445;-77
2022/07/24 11:08:49;;;;;;;2.00;1.60;;;;;;;32.21;34.48;101680.28;4984072;28;118667;-77
2022/07/24 11:11:19;;;;;;;1.80;1.63;;;;;;;32.31;34.49;101680.84;4966403;28;119355;-77
2022/07/24 11:13:56;;;;;;;2.55;1.60;;;;;;;32.37;34.33;101680.06;4986545;28;123270;-77
2022/07/24 11:16:27;;;;;;;1.90;1.70;;;;;;;32.48;34.10;101669.66;4985788;28;123911;-77
2022/07/24 11:18:59;;;;;;;3.05;1.92;;;;;;;32.56;33.96;101677.75;4987874;28;119323;-77